createdAt,value
2022-10-11T00:04:17.976Z,92.26
2022-10-11T00:09:19.236Z,94.20
2022-10-11T00:14:20.753Z,94.82
2022-10-11T00:19:22.061Z,94.76
2022-10-11T00:24:23.310Z,92.52
2022-10-11T00:29:24.566Z,91.97
2022-10-11T00:34:25.816Z,91.34
2022-10-11T00:39:27.080Z,93.82
2022-10-11T00:44:29.020Z,93.64
2022-10-11T00:49:35.796Z,92.52
2022-10-11T00:54:40.821Z,92.72
2022-10-11T00:59:49.599Z,94.82
2022-10-11T01:05:05.656Z,92.47
2022-10-11T01:10:12.943Z,92.01
2022-10-11T01:15:22.731Z,90.21
2022-10-11T01:20:31.929Z,90.10
2022-10-11T01:25:51.826Z,93.81
2022-10-11T01:30:56.376Z,94.91
2022-10-11T01:36:05.137Z,92.69
2022-10-11T01:41:09.270Z,91.39
2022-10-11T01:46:11.608Z,94.38
2022-10-11T01:51:13.117Z,91.90
2022-10-11T01:56:22.801Z,91.75
2022-10-11T02:01:34.820Z,93.36
2022-10-11T02:06:46.872Z,92.79
2022-10-11T02:17:55.194Z,93.49
2022-10-11T02:23:02.343Z,94.98
2022-10-11T02:28:05.983Z,92.17
2022-10-11T02:33:09.643Z,92.58
2022-10-11T02:38:31.124Z,92.53
2022-10-11T02:43:43.444Z,92.95
2022-10-11T02:48:44.688Z,96.58
2022-10-11T02:53:45.928Z,94.22
2022-10-11T02:58:47.173Z,93.27
2022-10-11T03:03:48.472Z,93.54
2022-10-11T03:08:49.702Z,93.42
2022-10-11T03:13:50.938Z,92.28
2022-10-11T03:18:52.161Z,93.53
2022-10-11T03:23:53.485Z,92.46
2022-10-11T03:28:55.115Z,93.01
2022-10-11T03:33:56.416Z,93.13
2022-10-11T03:38:59.184Z,93.27
2022-10-11T03:44:00.422Z,91.27
2022-10-11T03:49:01.650Z,90.70
2022-10-11T03:54:03.045Z,92.67
2022-10-11T03:59:04.319Z,91.52
2022-10-11T04:04:05.803Z,93.46
2022-10-11T04:09:07.017Z,93.52
2022-10-11T04:14:08.332Z,92.68
2022-10-11T04:19:09.557Z,95.43
2022-10-11T04:24:11.567Z,94.07
2022-10-11T04:29:12.835Z,91.65
2022-10-11T04:34:14.127Z,91.39
2022-10-11T04:39:15.443Z,90.67
2022-10-11T04:44:16.685Z,91.85
2022-10-11T04:49:17.934Z,90.80
2022-10-11T04:54:19.347Z,90.61
2022-10-11T04:59:20.653Z,94.27
2022-10-11T05:04:23.709Z,91.35
2022-10-11T05:09:24.958Z,92.88
2022-10-11T05:14:26.243Z,89.79
2022-10-11T05:19:27.536Z,93.50
2022-10-11T05:24:28.777Z,91.77
2022-10-11T05:29:30.192Z,93.03
2022-10-11T05:34:31.450Z,94.88
2022-10-11T05:39:32.738Z,94.92
2022-10-11T05:44:34.050Z,96.67
2022-10-11T05:49:35.306Z,95.16
2022-10-11T05:54:36.636Z,93.09
2022-10-11T05:59:37.859Z,96.84
2022-10-11T06:04:39.623Z,93.90
2022-10-11T06:09:40.862Z,93.38
2022-10-11T06:14:42.173Z,96.19
2022-10-11T06:19:43.407Z,95.92
2022-10-11T06:24:44.664Z,94.40
2022-10-11T06:29:45.919Z,94.11
2022-10-11T06:34:47.274Z,94.64
2022-10-11T06:39:50.203Z,94.21
2022-10-11T06:44:51.591Z,94.65
2022-10-11T06:49:52.863Z,95.62
2022-10-11T06:54:54.124Z,95.36
2022-10-11T06:59:55.371Z,93.69
2022-10-11T07:04:56.621Z,96.46
2022-10-11T07:09:57.872Z,93.09
2022-10-11T07:14:59.137Z,94.27
2022-10-11T07:20:00.380Z,92.65
2022-10-11T07:25:01.847Z,92.90
2022-10-11T07:30:03.297Z,92.90
2022-10-11T07:35:04.735Z,91.99
2022-10-11T07:40:10.613Z,93.00
2022-10-11T07:45:11.836Z,91.44
2022-10-11T07:50:13.570Z,90.56
2022-10-11T07:55:14.859Z,92.68
2022-10-11T08:00:16.211Z,90.25
2022-10-11T08:05:17.669Z,90.95
2022-10-11T08:10:18.941Z,90.39
2022-10-11T08:15:20.277Z,91.47
2022-10-11T08:20:21.665Z,92.38
2022-10-11T08:25:23.137Z,92.88
2022-10-11T08:30:24.458Z,90.76
2022-10-11T08:35:25.742Z,91.67
2022-10-11T08:40:30.374Z,92.30
2022-10-11T08:45:50.801Z,93.09
2022-10-11T08:50:54.195Z,92.19
2022-10-11T08:55:55.506Z,91.14
2022-10-11T09:00:57.787Z,92.93
2022-10-11T09:06:20.290Z,96.33
2022-10-11T09:11:31.100Z,90.32
2022-10-11T09:16:35.438Z,91.22
2022-10-11T09:21:51.649Z,90.01
2022-10-11T09:26:56.818Z,95.64
2022-10-11T09:31:58.741Z,95.36
2022-10-11T09:37:15.275Z,92.77
2022-10-11T09:42:17.073Z,95.51
2022-10-11T09:47:25.900Z,94.77
2022-10-11T09:52:27.179Z,94.90
2022-10-11T09:57:29.960Z,91.94
2022-10-11T10:02:38.901Z,89.17
2022-10-11T10:07:41.067Z,93.21
2022-10-11T10:12:42.437Z,89.23
2022-10-11T10:17:50.959Z,86.59
2022-10-11T10:22:52.399Z,86.02
2022-10-11T10:27:58.168Z,80.04
2022-10-11T10:33:05.467Z,84.15
2022-10-11T10:38:26.804Z,84.66
2022-10-11T10:43:31.979Z,80.85
2022-10-11T10:49:02.022Z,82.50
2022-10-11T10:53:57.325Z,83.93
2022-10-11T10:59:17.257Z,81.71
2022-10-11T11:04:32.364Z,82.09
2022-10-11T11:09:36.626Z,81.02
2022-10-11T11:14:40.595Z,81.77
2022-10-11T11:19:59.910Z,81.59
2022-10-11T11:25:19.717Z,76.90
2022-10-11T11:30:30.216Z,78.47
2022-10-11T11:35:37.132Z,73.08
2022-10-11T11:40:41.535Z,75.33
2022-10-11T11:45:48.474Z,75.99
2022-10-11T11:50:55.255Z,78.50
2022-10-11T11:55:56.451Z,76.93
2022-10-11T12:01:15.539Z,79.97
2022-10-11T12:06:19.383Z,77.60
2022-10-11T12:11:31.786Z,75.07
2022-10-11T12:16:56.526Z,74.99
2022-10-11T12:22:18.751Z,72.57
2022-10-11T12:27:39.952Z,72.88
2022-10-11T12:32:41.197Z,75.16
2022-10-11T12:37:42.420Z,75.68
2022-10-11T12:43:03.644Z,75.84
2022-10-11T12:48:04.861Z,73.05
2022-10-11T12:53:24.565Z,63.54
2022-10-11T12:58:28.694Z,65.63
2022-10-11T13:03:33.413Z,69.17
2022-10-11T13:08:36.500Z,72.10
2022-10-11T13:13:42.798Z,75.62
2022-10-11T13:18:45.729Z,74.62
2022-10-11T13:23:46.990Z,73.08
2022-10-11T13:28:48.315Z,74.79
2022-10-11T13:33:54.635Z,66.56
2022-10-11T13:38:57.385Z,70.32
2022-10-11T13:43:59.536Z,66.25
2022-10-11T13:49:05.545Z,69.66
2022-10-11T13:54:11.730Z,68.17
2022-10-11T13:59:19.440Z,67.39
2022-10-11T14:04:21.058Z,69.61
2022-10-11T14:09:34.250Z,63.57
2022-10-11T14:14:35.736Z,64.05
2022-10-11T14:19:37.447Z,64.67
2022-10-11T14:24:38.724Z,70.75
2022-10-11T14:29:45.637Z,71.13
2022-10-11T14:34:52.675Z,72.99
2022-10-11T14:39:53.891Z,70.50
2022-10-11T14:44:55.139Z,69.93
2022-10-11T14:49:56.374Z,72.95
2022-10-11T14:54:57.608Z,67.44
2022-10-11T14:59:58.840Z,70.06
2022-10-11T15:05:00.083Z,66.29
2022-10-11T15:10:01.357Z,68.59
2022-10-11T15:15:02.685Z,65.34
2022-10-11T15:20:04.049Z,70.13
2022-10-11T15:25:05.647Z,71.25
2022-10-11T15:30:12.620Z,63.24
2022-10-11T15:35:14.237Z,62.78
2022-10-11T15:40:22.828Z,63.23
2022-10-11T15:45:24.132Z,62.25
2022-10-11T15:50:39.225Z,71.26
2022-10-11T15:55:44.485Z,68.88
2022-10-11T16:00:46.784Z,71.25
2022-10-11T16:05:48.211Z,70.57
2022-10-11T16:10:49.928Z,70.87
2022-10-11T16:15:51.251Z,71.29
2022-10-11T16:20:52.575Z,71.75
2022-10-11T16:26:00.910Z,70.85
2022-10-11T16:31:06.494Z,70.52
2022-10-11T16:36:26.579Z,71.10
2022-10-11T16:41:27.931Z,72.43
2022-10-11T16:46:31.893Z,72.51
2022-10-11T16:51:33.459Z,72.50
2022-10-11T16:56:39.537Z,72.77
2022-10-11T17:01:41.366Z,73.35
2022-10-11T17:06:43.882Z,72.58
2022-10-11T17:11:45.308Z,73.37
2022-10-11T17:16:46.557Z,74.80
2022-10-11T17:21:47.830Z,74.29
2022-10-11T17:26:49.102Z,74.84
2022-10-11T17:31:50.444Z,75.20
2022-10-11T17:36:51.747Z,75.21
2022-10-11T17:41:53.048Z,74.96
2022-10-11T17:46:54.296Z,77.10
2022-10-11T17:51:56.521Z,76.80
2022-10-11T17:56:58.180Z,78.91
2022-10-11T18:01:59.431Z,77.45
2022-10-11T18:07:00.837Z,76.60
2022-10-11T18:12:02.223Z,76.83
2022-10-11T18:17:03.636Z,77.93
2022-10-11T18:22:07.222Z,78.10
2022-10-11T18:27:08.683Z,78.00
2022-10-11T18:32:09.989Z,77.83
2022-10-11T18:37:11.224Z,77.76
2022-10-11T18:42:12.448Z,78.77
2022-10-11T18:47:13.684Z,79.02
2022-10-11T18:52:15.168Z,77.48
2022-10-11T18:57:16.804Z,78.23
2022-10-11T19:02:18.214Z,82.12
2022-10-11T19:07:19.861Z,81.47
2022-10-11T19:12:21.161Z,82.03
2022-10-11T19:17:22.813Z,81.95
2022-10-11T19:22:24.116Z,81.03
2022-10-11T19:27:25.490Z,82.80
2022-10-11T19:32:26.799Z,81.56
2022-10-11T19:37:28.085Z,83.29
2022-10-11T19:42:29.704Z,81.36
2022-10-11T19:47:31.702Z,83.23
2022-10-11T19:52:33.451Z,81.54
2022-10-11T19:57:35.010Z,83.00
2022-10-11T20:02:36.293Z,81.72
2022-10-11T20:07:37.532Z,85.14
2022-10-11T20:12:42.385Z,83.00
2022-10-11T20:17:50.000Z,82.42
2022-10-11T20:22:53.348Z,82.29
2022-10-11T20:27:54.585Z,82.96
2022-10-11T20:32:55.856Z,82.53
2022-10-11T20:37:57.139Z,83.47
2022-10-11T20:42:58.365Z,82.62
2022-10-11T20:47:59.594Z,82.53
2022-10-11T20:53:00.880Z,85.78
2022-10-11T20:58:02.150Z,84.05
2022-10-11T21:03:03.396Z,83.64
2022-10-11T21:08:04.919Z,84.86
2022-10-11T21:13:06.204Z,84.23
2022-10-11T21:18:07.752Z,82.72
2022-10-11T21:23:09.669Z,83.20
2022-10-11T21:28:10.956Z,84.92
2022-10-11T21:33:12.292Z,85.11
2022-10-11T21:38:13.543Z,84.60
2022-10-11T21:43:14.794Z,83.87
2022-10-11T21:48:16.125Z,83.74
2022-10-11T21:53:17.356Z,83.61
2022-10-11T21:58:18.585Z,83.46
2022-10-11T22:03:20.122Z,84.95
2022-10-11T22:08:22.395Z,84.88
2022-10-11T22:13:24.294Z,84.83
2022-10-11T22:18:25.562Z,84.13
2022-10-11T22:23:26.798Z,85.44
2022-10-11T22:28:28.034Z,84.32
2022-10-11T22:33:29.322Z,83.83
2022-10-11T22:38:30.572Z,84.93
2022-10-11T22:43:31.813Z,84.85
2022-10-11T22:48:33.165Z,83.21
2022-10-11T22:53:34.432Z,82.55
2022-10-11T22:58:35.685Z,84.64
2022-10-11T23:03:37.371Z,83.83
2022-10-11T23:08:38.685Z,84.08
2022-10-11T23:13:39.952Z,85.43
2022-10-11T23:18:41.529Z,84.59
2022-10-11T23:23:42.835Z,85.12
2022-10-11T23:28:44.250Z,83.89
2022-10-11T23:33:46.284Z,84.86
2022-10-11T23:38:55.179Z,83.67
2022-10-11T23:43:57.176Z,85.49
2022-10-11T23:48:58.424Z,86.93
2022-10-11T23:53:59.701Z,85.45
2022-10-11T23:59:00.921Z,86.87
